Time;durP1;ratioP1;P1;durP2;ratioP2;P2;SDS_P1;SDS_P2;PMS_P1;PMS_P2;Temp;Humidity;BMP_temperature;BMP_pressure;BME280_temperature;BME280_humidity;BME280_pressure;Samples;Min_cycle;Max_cycle;Signal;HPM_P1;HPM_P2
2021/12/30 00:00:21;;;;;;;7.32;5.35;;;;;;;4.10;100.00;93801.19;5136505;27;20092;-70
2021/12/30 00:02:47;;;;;;;7.13;5.40;;;;;;;4.07;100.00;93808.22;5135175;27;20429;-70
2021/12/30 00:05:14;;;;;;;6.60;4.65;;;;;;;3.99;100.00;93809.78;5136143;27;20110;-70
2021/12/30 00:07:40;;;;;;;9.18;4.97;;;;;;;4.04;100.00;93811.09;5136315;27;20085;-70
2021/12/30 00:10:07;;;;;;;7.25;4.85;;;;;;;4.31;100.00;93807.41;5135999;27;20368;-70
2021/12/30 00:12:32;;;;;;;5.95;4.30;;;;;;;4.20;100.00;93813.34;5136607;27;20023;-69
2021/12/30 00:14:58;;;;;;;6.55;4.65;;;;;;;4.45;100.00;93805.94;5135995;27;20504;-69
2021/12/30 00:17:24;;;;;;;6.88;4.72;;;;;;;4.28;100.00;93810.28;5136493;27;20015;-70
2021/12/30 00:19:49;;;;;;;6.22;4.43;;;;;;;4.26;100.00;93799.25;5135835;27;20423;-69
2021/12/30 00:22:15;;;;;;;5.70;3.80;;;;;;;4.12;100.00;93817.59;5135791;27;20110;-70
2021/12/30 00:24:40;;;;;;;6.68;4.28;;;;;;;4.17;100.00;93810.81;5134830;27;20118;-70
2021/12/30 00:27:06;;;;;;;6.50;4.03;;;;;;;4.25;100.00;93819.28;5135636;27;20023;-70
2021/12/30 00:29:31;;;;;;;5.57;3.72;;;;;;;4.05;100.00;93817.94;5135675;27;20023;-70
2021/12/30 00:31:57;;;;;;;6.90;4.20;;;;;;;3.93;100.00;93821.59;5135938;27;20098;-69
2021/12/30 00:34:22;;;;;;;7.47;4.43;;;;;;;4.12;100.00;93816.81;5135800;27;20027;-69
2021/12/30 00:36:48;;;;;;;5.20;3.67;;;;;;;3.91;100.00;93824.03;5135974;27;20059;-69
2021/12/30 00:39:13;;;;;;;4.97;3.60;;;;;;;3.93;100.00;93833.09;5135706;27;20076;-69
2021/12/30 00:41:39;;;;;;;5.00;3.47;;;;;;;4.04;100.00;93829.88;5135469;27;20023;-68
2021/12/30 00:44:04;;;;;;;5.00;3.40;;;;;;;4.04;100.00;93835.25;5135340;27;20023;-69
2021/12/30 00:46:30;;;;;;;4.05;3.03;;;;;;;4.00;100.00;93823.94;5135325;27;20027;-70
2021/12/30 00:48:56;;;;;;;4.38;3.08;;;;;;;3.84;100.00;93830.47;5135226;27;20118;-69
2021/12/30 00:51:21;;;;;;;5.28;3.63;;;;;;;3.89;100.00;93835.94;5135537;27;20023;-70
2021/12/30 00:53:47;;;;;;;5.45;3.60;;;;;;;4.05;100.00;93826.75;5135189;27;20042;-70
2021/12/30 00:56:12;;;;;;;6.40;3.70;;;;;;;3.75;100.00;93831.28;5134949;27;20184;-70
2021/12/30 00:58:38;;;;;;;4.72;3.17;;;;;;;3.73;100.00;93836.38;5135307;27;20445;-69
2021/12/30 01:01:04;;;;;;;4.65;2.90;;;;;;;3.68;100.00;93834.31;5135025;27;20023;-69
2021/12/30 01:03:31;;;;;;;4.03;2.88;;;;;;;3.77;100.00;93831.56;5134156;27;20019;-69
2021/12/30 01:05:57;;;;;;;5.60;3.50;;;;;;;3.69;100.00;93835.81;5134671;27;20023;-69
2021/12/30 01:08:22;;;;;;;6.70;3.42;;;;;;;3.59;100.00;93843.16;5134973;27;20020;-69
2021/12/30 01:10:48;;;;;;;4.97;2.90;;;;;;;3.54;100.00;93831.13;5134824;27;20025;-69
2021/12/30 01:13:18;;;;;;;4.78;3.00;;;;;;;3.65;100.00;93845.97;5135056;27;20015;-69
2021/12/30 01:15:49;;;;;;;5.50;2.90;;;;;;;3.69;100.00;93835.81;5135214;27;20022;-69
2021/12/30 01:18:26;;;;;;;4.00;2.55;;;;;;;3.60;100.00;93846.59;5134987;27;20044;-69
2021/12/30 01:20:51;;;;;;;3.72;2.60;;;;;;;3.68;100.00;93845.03;5134858;27;20027;-69
2021/12/30 01:23:18;;;;;;;3.58;2.70;;;;;;;3.69;100.00;93841.91;5134440;27;20019;-70
2021/12/30 01:25:43;;;;;;;3.22;2.25;;;;;;;3.63;100.00;93848.38;5134528;27;20023;-69
2021/12/30 01:28:09;;;;;;;3.63;2.80;;;;;;;3.95;100.00;93857.53;5134325;27;20034;-70
2021/12/30 01:30:35;;;;;;;4.38;2.65;;;;;;;3.78;100.00;93856.50;5134270;27;20433;-69
2021/12/30 01:33:00;;;;;;;3.30;2.33;;;;;;;3.65;100.00;93859.38;5134944;27;20023;-70
2021/12/30 01:35:26;;;;;;;3.08;2.70;;;;;;;3.70;100.00;93856.06;5134400;27;20018;-69
2021/12/30 01:37:58;;;;;;;3.15;2.30;;;;;;;3.81;100.00;93864.34;5133400;27;20023;-69
2021/12/30 01:40:24;;;;;;;4.45;2.58;;;;;;;3.85;100.00;93864.19;5134255;27;20023;-69
2021/12/30 01:42:50;;;;;;;4.03;2.42;;;;;;;3.79;100.00;93861.41;5134271;27;20027;-69
2021/12/30 01:45:16;;;;;;;2.72;2.20;;;;;;;3.80;100.00;93854.81;5134163;27;20023;-69
2021/12/30 01:47:49;;;;;;;2.72;1.90;;;;;;;3.66;100.00;93858.19;5133114;27;20124;-69
2021/12/30 01:50:15;;;;;;;4.85;2.10;;;;;;;3.85;100.00;93859.56;5134710;27;20029;-69
2021/12/30 01:52:41;;;;;;;2.88;2.00;;;;;;;3.65;100.00;93851.34;5134433;27;20430;-69
2021/12/30 01:55:08;;;;;;;4.80;2.20;;;;;;;3.71;100.00;93855.63;5134367;27;20061;-69
2021/12/30 01:57:33;;;;;;;3.25;2.20;;;;;;;3.82;100.00;93849.00;5133996;27;20059;-70
2021/12/30 01:59:59;;;;;;;4.72;2.50;;;;;;;3.98;100.00;93862.00;5133102;27;20066;-70
2021/12/30 02:02:25;;;;;;;3.30;2.25;;;;;;;4.04;100.00;93856.75;5133969;27;20034;-70
2021/12/30 02:04:52;;;;;;;3.78;2.22;;;;;;;3.89;100.00;93865.47;5134049;27;20027;-69
2021/12/30 02:07:18;;;;;;;3.40;2.20;;;;;;;3.95;100.00;93864.84;5133861;27;20026;-70
2021/12/30 02:09:44;;;;;;;4.03;2.10;;;;;;;3.86;100.00;93858.34;5133988;27;20019;-69
2021/12/30 02:12:09;;;;;;;2.63;2.10;;;;;;;3.79;100.00;93866.75;5133962;27;20019;-70
2021/12/30 02:14:36;;;;;;;2.72;2.25;;;;;;;3.70;100.00;93867.53;5134245;27;20106;-70
2021/12/30 02:17:04;;;;;;;2.63;1.85;;;;;;;3.77;100.00;93869.16;5138233;27;20023;-69
2021/12/30 02:19:30;;;;;;;2.90;1.90;;;;;;;3.74;100.00;93864.69;5138859;27;20126;-69
2021/12/30 02:21:55;;;;;;;6.07;2.80;;;;;;;3.71;100.00;93865.63;5138105;27;20030;-69
2021/12/30 02:24:21;;;;;;;3.85;2.65;;;;;;;3.77;100.00;93869.16;5138060;27;20023;-69
2021/12/30 02:26:47;;;;;;;2.95;2.30;;;;;;;3.67;100.00;93870.41;5138250;27;20345;-68
2021/12/30 02:29:12;;;;;;;2.97;2.22;;;;;;;3.88;100.00;93874.00;5137932;27;20023;-69
2021/12/30 02:31:39;;;;;;;3.38;2.30;;;;;;;3.80;100.00;93868.22;5137894;27;20098;-68
2021/12/30 02:34:05;;;;;;;3.92;2.67;;;;;;;3.73;100.00;93873.94;5137849;27;20019;-69
2021/12/30 02:36:36;;;;;;;3.67;2.50;;;;;;;3.65;100.00;93873.53;5138325;27;20026;-69
2021/12/30 02:39:09;;;;;;;2.90;2.30;;;;;;;3.84;100.00;93876.84;5138042;27;20466;-69
2021/12/30 02:41:37;;;;;;;4.22;2.45;;;;;;;3.77;100.00;93879.88;5137789;27;20030;-69
2021/12/30 02:44:05;;;;;;;4.72;2.83;;;;;;;3.97;100.00;93884.69;5136662;27;20023;-69
2021/12/30 02:46:32;;;;;;;3.00;2.60;;;;;;;3.88;100.00;93884.75;5136597;27;20064;-69
2021/12/30 02:48:59;;;;;;;4.30;2.90;;;;;;;3.89;100.00;93897.69;5137491;27;20027;-69
2021/12/30 02:51:26;;;;;;;4.05;2.42;;;;;;;3.81;100.00;93901.94;5137513;27;20031;-69
2021/12/30 02:53:52;;;;;;;3.53;2.67;;;;;;;3.68;100.00;93904.09;5137471;27;20090;-70
2021/12/30 02:56:21;;;;;;;3.78;2.63;;;;;;;3.61;100.00;93893.69;5137206;27;20046;-70
2021/12/30 02:58:47;;;;;;;2.78;2.30;;;;;;;3.73;100.00;93900.78;5137331;27;20023;-70
2021/12/30 03:01:17;;;;;;;3.25;2.63;;;;;;;3.61;100.00;93904.44;5137448;27;20030;-70
2021/12/30 03:03:42;;;;;;;3.30;2.45;;;;;;;3.59;100.00;93901.47;5138156;27;20458;-69
2021/12/30 03:06:10;;;;;;;4.32;2.88;;;;;;;3.74;100.00;93907.66;5137291;27;20054;-70
2021/12/30 03:08:36;;;;;;;4.55;2.75;;;;;;;3.64;100.00;93908.88;5137426;27;20023;-69
2021/12/30 03:11:03;;;;;;;5.47;2.40;;;;;;;3.62;100.00;93916.66;5137135;27;20080;-69
2021/12/30 03:13:31;;;;;;;3.17;2.58;;;;;;;3.67;100.00;93905.31;5137335;27;20018;-69
2021/12/30 03:16:11;;;;;;;3.70;2.50;;;;;;;3.73;100.00;93914.22;5137304;27;20463;-69
2021/12/30 03:18:37;;;;;;;4.03;2.65;;;;;;;3.57;100.00;93925.31;5137534;27;20392;-70
2021/12/30 03:21:04;;;;;;;4.50;2.70;;;;;;;3.73;100.00;93922.25;5137067;27;20061;-70
2021/12/30 03:23:30;;;;;;;3.38;2.55;;;;;;;3.67;100.00;93922.16;5136993;27;20030;-69
2021/12/30 03:25:56;;;;;;;5.10;3.33;;;;;;;3.74;100.00;93926.44;5137214;27;20509;-70
2021/12/30 03:28:21;;;;;;;5.20;3.10;;;;;;;3.67;100.00;93940.94;5135722;27;20107;-70
2021/12/30 03:30:48;;;;;;;4.53;3.40;;;;;;;3.70;100.00;93944.66;5137085;27;20049;-70
2021/12/30 03:33:13;;;;;;;4.18;2.80;;;;;;;3.54;100.00;93932.34;5136732;27;20023;-69
2021/12/30 03:35:39;;;;;;;5.47;3.20;;;;;;;3.49;100.00;93931.03;5136746;27;20432;-69
2021/12/30 03:38:05;;;;;;;4.75;3.17;;;;;;;3.42;100.00;93931.34;5136741;27;20475;-69
2021/12/30 03:40:31;;;;;;;4.15;2.95;;;;;;;3.59;100.00;93931.00;5136651;27;20027;-69
2021/12/30 03:42:57;;;;;;;5.30;3.45;;;;;;;3.61;100.00;93933.94;5135586;27;20034;-68
2021/12/30 03:45:23;;;;;;;3.83;3.13;;;;;;;3.77;100.00;93936.25;5136777;27;20019;-69
2021/12/30 03:47:51;;;;;;;5.68;3.30;;;;;;;3.49;100.00;93938.31;5136482;27;20023;-69
2021/12/30 03:50:21;;;;;;;4.60;3.42;;;;;;;3.57;100.00;93930.69;5136728;27;20022;-69
2021/12/30 03:52:48;;;;;;;4.57;3.40;;;;;;;3.50;100.00;93948.59;5136484;27;20458;-69
2021/12/30 03:55:15;;;;;;;5.60;3.17;;;;;;;3.75;100.00;93946.72;5136601;27;20355;-69
2021/12/30 03:57:40;;;;;;;4.30;3.30;;;;;;;3.69;100.00;93954.63;5136124;27;20039;-69
2021/12/30 04:00:07;;;;;;;5.10;3.20;;;;;;;3.49;100.00;93947.13;5136797;27;20026;-69
2021/12/30 04:02:33;;;;;;;7.10;3.30;;;;;;;3.33;100.00;93944.81;5136159;27;20152;-69
2021/12/30 04:04:58;;;;;;;4.15;2.88;;;;;;;3.42;100.00;93963.53;5136191;27;20068;-69
2021/12/30 04:07:24;;;;;;;5.38;3.50;;;;;;;3.55;100.00;93972.13;5136411;27;20023;-69
2021/12/30 04:09:49;;;;;;;4.13;3.20;;;;;;;3.58;100.00;93972.44;5136140;27;20383;-69
2021/12/30 04:12:15;;;;;;;4.28;3.40;;;;;;;3.70;100.00;93971.50;5135964;27;20023;-69
2021/12/30 04:14:40;;;;;;;5.10;3.55;;;;;;;3.60;100.00;93978.84;5134977;27;20023;-69
2021/12/30 04:17:06;;;;;;;4.00;3.60;;;;;;;3.57;100.00;93979.72;5135794;27;20027;-69
2021/12/30 04:19:31;;;;;;;6.10;3.80;;;;;;;3.45;100.00;93984.13;5135928;27;20030;-69
2021/12/30 04:21:58;;;;;;;5.10;3.83;;;;;;;3.44;100.00;93982.63;5135688;27;20023;-68
2021/12/30 04:24:24;;;;;;;4.07;3.22;;;;;;;3.34;100.00;93995.31;5135856;27;20471;-69
2021/12/30 04:26:50;;;;;;;4.55;3.45;;;;;;;3.38;100.00;93995.91;5134661;27;20023;-69
2021/12/30 04:29:18;;;;;;;6.53;3.42;;;;;;;3.36;100.00;94000.97;5135720;27;20467;-69
2021/12/30 04:31:44;;;;;;;4.35;3.28;;;;;;;3.45;100.00;94010.94;5135683;27;20023;-68
2021/12/30 04:34:09;;;;;;;5.13;3.58;;;;;;;3.41;100.00;94007.69;5135584;27;20026;-69
2021/12/30 04:36:35;;;;;;;4.85;3.88;;;;;;;3.51;100.00;94009.13;5135678;27;20023;-69
2021/12/30 04:39:01;;;;;;;6.22;3.75;;;;;;;3.68;100.00;94006.06;5135741;27;20095;-69
2021/12/30 04:41:26;;;;;;;5.28;3.70;;;;;;;3.46;100.00;94020.47;5135347;27;20126;-69
2021/12/30 04:43:52;;;;;;;5.60;3.70;;;;;;;3.59;100.00;94022.25;5135397;27;20091;-69
2021/12/30 04:46:17;;;;;;;4.50;3.67;;;;;;;3.49;100.00;94022.25;5135348;27;20027;-69
2021/12/30 04:48:43;;;;;;;4.55;3.22;;;;;;;3.51;100.00;94030.59;5135166;27;20344;-69
2021/12/30 04:51:08;;;;;;;5.68;3.78;;;;;;;3.47;100.00;94021.94;5135161;27;20019;-69
2021/12/30 04:53:34;;;;;;;6.20;4.20;;;;;;;3.60;100.00;94034.44;5135455;27;20054;-69
2021/12/30 04:55:59;;;;;;;4.63;3.40;;;;;;;3.55;100.00;94039.22;5135292;27;20126;-69
2021/12/30 04:58:25;;;;;;;6.75;3.97;;;;;;;3.68;100.00;94044.41;5135361;27;20015;-69
2021/12/30 05:00:51;;;;;;;5.63;3.75;;;;;;;3.46;100.00;94033.88;5135021;27;20116;-69
2021/12/30 05:03:17;;;;;;;4.38;3.60;;;;;;;3.64;100.00;94048.44;5134921;27;20091;-69
2021/12/30 05:05:45;;;;;;;7.50;4.10;;;;;;;3.78;100.00;94053.19;5133873;27;20429;-69
2021/12/30 05:08:12;;;;;;;6.80;3.80;;;;;;;3.77;100.00;94051.69;5135034;27;20051;-69
2021/12/30 05:10:38;;;;;;;5.75;4.25;;;;;;;3.41;100.00;94057.88;5134782;27;20034;-69
2021/12/30 05:13:06;;;;;;;5.40;3.83;;;;;;;3.59;100.00;94051.75;5135010;27;20030;-69
2021/12/30 05:15:32;;;;;;;5.43;3.95;;;;;;;3.63;100.00;94063.81;5134835;27;20019;-69
2021/12/30 05:17:58;;;;;;;4.95;3.88;;;;;;;3.66;100.00;94052.16;5134718;27;20031;-69
2021/12/30 05:20:24;;;;;;;5.18;3.85;;;;;;;3.91;100.00;94065.66;5134657;27;20452;-70
2021/12/30 05:22:49;;;;;;;5.22;3.65;;;;;;;3.69;100.00;94072.00;5134784;27;20026;-69
2021/12/30 05:25:16;;;;;;;6.03;3.80;;;;;;;3.47;100.00;94072.94;5134534;27;20447;-69
2021/12/30 05:27:42;;;;;;;8.30;4.05;;;;;;;3.53;100.00;94073.81;5134485;27;20585;-69
2021/12/30 05:30:11;;;;;;;5.50;4.30;;;;;;;3.77;100.00;94080.47;5133511;27;20019;-69
2021/12/30 05:32:37;;;;;;;7.05;4.40;;;;;;;4.01;100.00;94085.91;5134917;27;20031;-70
2021/12/30 05:35:05;;;;;;;4.85;3.92;;;;;;;3.81;100.00;94087.16;5134686;27;20034;-69
2021/12/30 05:37:31;;;;;;;5.05;3.35;;;;;;;3.57;100.00;94102.44;5134382;27;20031;-69
2021/12/30 05:39:57;;;;;;;7.97;4.20;;;;;;;3.53;100.00;94100.66;5134241;27;20411;-69
2021/12/30 05:42:23;;;;;;;4.95;3.75;;;;;;;3.66;100.00;94110.47;5133255;27;20164;-69
2021/12/30 05:44:53;;;;;;;6.22;3.85;;;;;;;3.67;100.00;94111.97;5134452;27;20022;-69
2021/12/30 05:47:18;;;;;;;6.55;3.78;;;;;;;3.58;100.00;94111.97;5134057;27;20455;-69
2021/12/30 05:49:44;;;;;;;5.78;3.95;;;;;;;3.60;100.00;94117.63;5133616;27;20130;-69
2021/12/30 05:52:10;;;;;;;6.10;4.57;;;;;;;3.57;100.00;94118.53;5134356;27;20160;-69
2021/12/30 05:54:36;;;;;;;6.45;4.40;;;;;;;3.47;100.00;94115.88;5134714;27;20367;-70
2021/12/30 05:57:02;;;;;;;5.80;4.40;;;;;;;3.46;100.00;94116.31;5133950;27;20065;-69
2021/12/30 05:59:27;;;;;;;5.45;4.18;;;;;;;3.67;100.00;94122.72;5134660;27;20049;-69
2021/12/30 06:01:52;;;;;;;5.28;4.00;;;;;;;3.67;100.00;94118.06;5134074;27;20027;-70
2021/12/30 06:04:18;;;;;;;6.20;4.55;;;;;;;3.58;100.00;94125.41;5132999;27;20066;-70
2021/12/30 06:06:43;;;;;;;6.78;4.38;;;;;;;3.76;100.00;94132.66;5134002;27;20027;-70
2021/12/30 06:09:10;;;;;;;6.22;4.05;;;;;;;3.74;100.00;94133.13;5133899;27;20022;-70
2021/12/30 06:11:36;;;;;;;7.65;4.65;;;;;;;3.57;100.00;94135.38;5134174;27;20031;-70
2021/12/30 06:14:02;;;;;;;6.43;5.10;;;;;;;3.63;100.00;94138.22;5134222;27;20023;-69
2021/12/30 06:16:27;;;;;;;7.05;4.80;;;;;;;3.63;100.00;94143.59;5133859;27;20034;-70
2021/12/30 06:18:53;;;;;;;8.48;5.20;;;;;;;3.78;100.00;94157.13;5133910;27;20016;-70
2021/12/30 06:21:18;;;;;;;7.20;5.03;;;;;;;3.66;100.00;94156.84;5133919;27;20023;-70
2021/12/30 06:23:44;;;;;;;6.65;4.85;;;;;;;4.02;100.00;94167.94;5133888;27;20030;-70
2021/12/30 06:26:09;;;;;;;7.93;5.10;;;;;;;3.72;100.00;94167.72;5133813;27;20181;-70
2021/12/30 06:28:34;;;;;;;6.82;4.75;;;;;;;3.63;100.00;94181.91;5134032;27;20031;-70
2021/12/30 06:31:00;;;;;;;8.25;5.40;;;;;;;3.63;100.00;94176.53;5133816;27;20464;-70
2021/12/30 06:33:25;;;;;;;8.20;5.50;;;;;;;3.59;100.00;94183.25;5134057;27;20023;-70
2021/12/30 06:35:51;;;;;;;7.68;5.40;;;;;;;3.73;100.00;94191.41;5134027;27;20027;-68
2021/12/30 06:38:16;;;;;;;9.48;5.75;;;;;;;3.67;100.00;94197.84;5133879;27;20023;-68
2021/12/30 06:40:42;;;;;;;8.48;5.63;;;;;;;3.92;100.00;94199.44;5132663;28;20033;-69
2021/12/30 06:43:09;;;;;;;8.32;5.75;;;;;;;3.89;100.00;94214.53;5133588;27;20110;-69
2021/12/30 06:45:34;;;;;;;9.80;6.10;;;;;;;3.87;100.00;94216.94;5133483;27;20562;-69
2021/12/30 06:48:00;;;;;;;9.40;6.28;;;;;;;3.93;100.00;94218.97;5132383;28;20106;-69
2021/12/30 06:50:31;;;;;;;8.30;5.97;;;;;;;3.97;100.00;94219.59;5133479;27;20030;-70
2021/12/30 06:52:56;;;;;;;10.65;6.43;;;;;;;3.98;100.00;94221.06;5133525;27;20027;-70
2021/12/30 06:55:22;;;;;;;7.47;5.20;;;;;;;4.12;100.00;94225.84;5133476;27;20027;-70
2021/12/30 06:57:47;;;;;;;7.85;5.68;;;;;;;4.21;100.00;94233.13;5134597;27;20096;-70
2021/12/30 07:00:14;;;;;;;8.73;5.78;;;;;;;4.33;100.00;94234.88;5132829;28;20019;-70
2021/12/30 07:02:44;;;;;;;4.57;3.60;;;;;;;4.14;100.00;94242.22;5136547;27;20023;-69
2021/12/30 07:05:10;;;;;;;4.32;2.90;;;;;;;4.23;100.00;94249.53;5136621;27;20432;-70
2021/12/30 07:07:36;;;;;;;3.92;2.20;;;;;;;4.09;100.00;94253.59;5137472;27;20019;-70
2021/12/30 07:10:03;;;;;;;2.58;1.90;;;;;;;4.25;100.00;94257.16;5137424;27;20095;-69
2021/12/30 07:12:28;;;;;;;2.80;2.10;;;;;;;4.39;100.00;94267.25;5137423;27;20023;-70
2021/12/30 07:14:54;;;;;;;3.22;2.22;;;;;;;4.12;100.00;94268.03;5137117;27;20143;-70
2021/12/30 07:17:20;;;;;;;2.63;1.95;;;;;;;4.26;100.00;94277.44;5137341;27;20027;-70
2021/12/30 07:19:45;;;;;;;4.20;2.40;;;;;;;4.15;100.00;94283.28;5137057;27;20031;-69
2021/12/30 07:22:10;;;;;;;3.00;1.90;;;;;;;4.31;100.00;94287.56;5136971;27;20038;-70
2021/12/30 07:24:36;;;;;;;2.90;1.90;;;;;;;4.40;100.00;94288.31;5136923;27;20031;-70
2021/12/30 07:27:02;;;;;;;3.50;2.22;;;;;;;4.31;100.00;94290.25;5136829;27;20031;-71
2021/12/30 07:29:27;;;;;;;3.65;2.45;;;;;;;4.37;100.00;94299.94;5136916;27;20114;-71
2021/12/30 07:31:52;;;;;;;5.57;2.33;;;;;;;4.54;100.00;94302.31;5136748;27;20027;-70
2021/12/30 07:34:18;;;;;;;6.13;2.60;;;;;;;4.17;100.00;94305.81;5135632;27;20490;-70
2021/12/30 07:36:43;;;;;;;3.55;2.58;;;;;;;4.47;100.00;94306.06;5137162;27;20091;-70
2021/12/30 07:39:09;;;;;;;3.50;2.50;;;;;;;4.35;100.00;94301.59;5135494;27;20023;-70
2021/12/30 07:41:35;;;;;;;5.53;2.55;;;;;;;4.27;100.00;94311.16;5137144;27;20062;-69
2021/12/30 07:44:00;;;;;;;3.85;2.97;;;;;;;4.29;100.00;94320.25;5136407;27;20353;-69
2021/12/30 07:46:26;;;;;;;4.50;3.15;;;;;;;4.40;100.00;94325.19;5136575;27;20023;-69
2021/12/30 07:48:51;;;;;;;5.43;3.53;;;;;;;4.51;100.00;94330.84;5136194;27;20027;-70
2021/12/30 07:51:17;;;;;;;6.88;4.05;;;;;;;4.07;100.00;94320.44;5136528;27;20023;-69
2021/12/30 07:53:42;;;;;;;5.70;3.53;;;;;;;4.26;100.00;94325.81;5136763;27;20038;-69
2021/12/30 07:56:08;;;;;;;6.32;3.83;;;;;;;4.37;100.00;94336.84;5136311;27;20043;-70
2021/12/30 07:58:34;;;;;;;5.85;3.50;;;;;;;4.44;100.00;94341.88;5136148;27;20030;-69
2021/12/30 08:01:00;;;;;;;5.30;3.92;;;;;;;4.28;100.00;94334.16;5136346;27;20110;-70
2021/12/30 08:03:26;;;;;;;8.32;5.60;;;;;;;4.21;100.00;94345.94;5135194;27;20472;-70
2021/12/30 08:05:52;;;;;;;9.27;6.28;;;;;;;3.83;100.00;94344.44;5136116;27;20023;-69
2021/12/30 08:08:17;;;;;;;8.93;5.97;;;;;;;4.08;100.00;94348.78;5135934;27;20042;-69
2021/12/30 08:10:43;;;;;;;7.82;5.60;;;;;;;3.95;100.00;94353.56;5136196;27;20451;-69
2021/12/30 08:13:09;;;;;;;6.65;4.40;;;;;;;4.20;100.00;94344.47;5135651;27;20050;-70
2021/12/30 08:15:34;;;;;;;6.00;3.17;;;;;;;3.80;100.00;94356.81;5135965;27;20043;-70
2021/12/30 08:18:00;;;;;;;3.70;3.20;;;;;;;4.01;100.00;94352.53;5136225;27;20030;-69
2021/12/30 08:20:27;;;;;;;5.63;3.40;;;;;;;4.23;100.00;94360.44;5136394;27;20433;-69
2021/12/30 08:22:53;;;;;;;5.30;3.55;;;;;;;4.29;100.00;94365.19;5135844;27;20023;-69
2021/12/30 08:25:21;;;;;;;6.95;4.50;;;;;;;4.38;100.00;94365.19;5135741;27;20031;-69
2021/12/30 08:27:48;;;;;;;10.88;5.28;;;;;;;4.22;100.00;94375.03;5135881;27;20024;-70
2021/12/30 08:30:16;;;;;;;8.38;4.97;;;;;;;4.05;100.00;94376.56;5135658;27;20451;-71
2021/12/30 08:32:42;;;;;;;8.82;4.65;;;;;;;4.30;100.00;94383.56;5135592;27;20023;-70
2021/12/30 08:35:10;;;;;;;7.70;4.38;;;;;;;4.05;100.00;94381.94;5135751;27;20031;-70
2021/12/30 08:37:36;;;;;;;7.13;4.60;;;;;;;4.41;100.00;94388.47;5135401;27;20519;-70
2021/12/30 08:40:03;;;;;;;10.82;5.30;;;;;;;4.41;100.00;94399.22;5135359;27;20112;-70
2021/12/30 08:42:30;;;;;;;11.45;6.43;;;;;;;4.37;100.00;94401.31;5135260;27;20106;-71
2021/12/30 08:44:58;;;;;;;12.77;6.63;;;;;;;4.46;100.00;94403.25;5135199;27;20455;-70
2021/12/30 08:47:24;;;;;;;11.18;6.35;;;;;;;4.38;100.00;94408.94;5135438;27;20037;-70
2021/12/30 08:49:50;;;;;;;9.98;5.45;;;;;;;4.34;100.00;94418.34;5135198;27;20487;-70
2021/12/30 08:52:18;;;;;;;9.32;6.13;;;;;;;4.30;100.00;94412.38;5135283;27;20023;-70
2021/12/30 08:54:45;;;;;;;10.27;5.97;;;;;;;4.31;100.00;94421.91;5135461;27;20019;-71
2021/12/30 08:57:11;;;;;;;10.90;5.68;;;;;;;4.41;100.00;94420.72;5134931;27;20051;-71
2021/12/30 08:59:37;;;;;;;6.60;4.32;;;;;;;4.24;100.00;94422.97;5136292;27;20038;-70
2021/12/30 09:02:05;;;;;;;7.38;4.22;;;;;;;4.53;100.00;94430.59;5134900;27;20037;-70
2021/12/30 09:04:31;;;;;;;10.18;4.47;;;;;;;4.16;100.00;94425.19;5133810;27;20019;-72
2021/12/30 09:06:58;;;;;;;13.73;7.05;;;;;;;3.85;100.00;94431.41;5134865;27;20039;-70
2021/12/30 09:09:23;;;;;;;11.70;5.93;;;;;;;3.94;100.00;94429.94;5134853;27;20366;-72
2021/12/30 09:11:49;;;;;;;8.43;5.38;;;;;;;3.74;100.00;94428.41;5134053;27;20110;-73
2021/12/30 09:14:15;;;;;;;10.18;5.20;;;;;;;3.79;100.00;94438.56;5134648;27;20080;-73
2021/12/30 09:16:41;;;;;;;8.65;5.18;;;;;;;3.73;100.00;94437.66;5134533;27;20035;-71
2021/12/30 09:19:07;;;;;;;16.65;8.77;;;;;;;4.18;100.00;94443.56;5134889;27;20019;-71
2021/12/30 09:21:37;;;;;;;8.90;5.60;;;;;;;4.21;100.00;94443.41;5134902;27;20079;-70
2021/12/30 09:24:02;;;;;;;6.22;4.05;;;;;;;3.81;100.00;94443.50;5134432;27;20029;-69
2021/12/30 09:26:29;;;;;;;5.85;3.60;;;;;;;3.86;100.00;94442.91;5133791;27;20019;-71
2021/12/30 09:28:54;;;;;;;5.70;3.67;;;;;;;4.12;100.00;94438.03;5134552;27;20023;-70
2021/12/30 09:31:20;;;;;;;7.80;4.78;;;;;;;4.01;100.00;94445.78;5134493;27;20023;-69
2021/12/30 09:33:45;;;;;;;7.13;4.40;;;;;;;4.28;100.00;94453.13;5134389;27;20115;-69
2021/12/30 09:36:11;;;;;;;11.27;5.88;;;;;;;4.37;100.00;94445.06;5134461;27;20019;-69
2021/12/30 09:38:36;;;;;;;12.05;5.57;;;;;;;4.32;100.00;94447.59;5134398;27;20483;-69
2021/12/30 09:41:02;;;;;;;11.57;5.63;;;;;;;4.22;100.00;94450.25;5134250;27;20030;-69
2021/12/30 09:43:27;;;;;;;12.85;6.53;;;;;;;4.46;100.00;94452.38;5134852;27;20435;-69
2021/12/30 09:45:53;;;;;;;11.32;5.18;;;;;;;4.53;100.00;94452.09;5134157;27;20079;-70
2021/12/30 09:48:19;;;;;;;17.17;6.85;;;;;;;4.65;100.00;94455.81;5134126;27;20023;-72
2021/12/30 09:50:47;;;;;;;37.50;6.70;;;;;;;4.74;100.00;94455.06;5134352;27;20127;-70
2021/12/30 09:53:13;;;;;;;11.30;4.10;;;;;;;5.51;100.00;94470.16;5134099;27;20482;-75
2021/12/30 09:55:39;;;;;;;7.43;3.85;;;;;;;6.17;100.00;94476.03;5133883;27;20054;-71
2021/12/30 09:58:06;;;;;;;4.90;2.70;;;;;;;5.27;100.00;94470.06;5134282;27;20103;-70
2021/12/30 10:00:32;;;;;;;4.88;2.78;;;;;;;4.91;100.00;94468.94;5134047;27;20111;-69
2021/12/30 10:02:58;;;;;;;7.38;2.88;;;;;;;4.82;100.00;94472.38;5133864;27;20083;-71
2021/12/30 10:05:27;;;;;;;5.93;3.35;;;;;;;4.60;100.00;94466.44;5133236;27;20045;-70
2021/12/30 10:08:09;;;;;;;5.53;2.88;;;;;;;4.65;100.00;94471.94;5133893;27;20053;-72
2021/12/30 10:10:36;;;;;;;;;;;;;;;4.74;100.00;94471.19;5134991;27;20030;-71
2021/12/30 10:13:17;;;;;;;9.52;4.10;;;;;;;4.97;100.00;94469.81;5133804;27;19969;-70
2021/12/30 10:15:46;;;;;;;6.00;3.65;;;;;;;4.65;100.00;94480.03;5133741;27;20023;-71
2021/12/30 10:18:12;;;;;;;7.57;3.60;;;;;;;4.68;100.00;94468.38;5134261;27;20019;-71
2021/12/30 10:20:40;;;;;;;6.68;3.97;;;;;;;4.56;100.00;94472.69;5134137;27;20398;-71
2021/12/30 10:23:15;;;;;;;6.60;4.47;;;;;;;4.81;100.00;94478.94;5134229;27;20051;-70
2021/12/30 10:25:43;;;;;;;8.15;4.93;;;;;;;4.47;100.00;94469.25;5135789;27;20027;-70
2021/12/30 10:28:23;;;;;;;18.73;8.57;;;;;;;4.42;100.00;94467.91;5138459;27;20023;-72
2021/12/30 10:30:51;;;;;;;7.57;4.60;;;;;;;4.07;100.00;94471.59;5137647;27;20035;-71
2021/12/30 10:33:24;;;;;;;6.75;4.00;;;;;;;4.01;100.00;94473.38;5139849;27;20094;-70
2021/12/30 10:35:52;;;;;;;7.55;4.70;;;;;;;4.17;100.00;94474.28;5137908;27;20451;-70
2021/12/30 10:38:17;;;;;;;6.65;4.10;;;;;;;4.35;100.00;94473.56;5138348;27;20045;-71
2021/12/30 10:40:49;;;;;;;6.25;3.97;;;;;;;4.22;100.00;94477.13;5136786;27;20039;-70
2021/12/30 10:43:19;;;;;;;;;;;;;;;4.57;100.00;94484.19;5138618;27;20040;-70
2021/12/30 10:46:01;;;;;;;4.88;3.67;;;;;;;4.44;100.00;94481.63;5137926;27;19933;-70
2021/12/30 10:48:27;;;;;;;5.32;3.40;;;;;;;4.57;100.00;94479.56;5138051;27;20023;-71
2021/12/30 10:51:15;;;;;;;9.98;5.07;;;;;;;4.70;100.00;94482.13;5137600;27;20078;-70
2021/12/30 10:53:41;;;;;;;9.30;5.63;;;;;;;4.69;100.00;94479.84;5137644;27;20026;-71
2021/12/30 10:56:28;;;;;;;12.30;7.18;;;;;;;4.56;100.00;94475.38;5137359;27;20109;-71
2021/12/30 10:59:26;;;;;;;8.52;5.80;;;;;;;4.60;100.00;94477.19;5137747;27;20496;-71
2021/12/30 11:02:09;;;;;;;8.63;5.30;;;;;;;4.69;100.00;94486.00;5136454;27;20371;-71
2021/12/30 11:04:48;;;;;;;6.57;3.95;;;;;;;4.54;100.00;94483.16;5137469;27;20037;-70
2021/12/30 11:07:16;;;;;;;7.78;4.05;;;;;;;4.32;100.00;94482.53;5137721;27;20066;-71
2021/12/30 11:09:50;;;;;;;6.13;4.05;;;;;;;4.63;100.00;94492.41;5137085;27;20023;-71
2021/12/30 11:12:22;;;;;;;7.38;4.18;;;;;;;4.50;100.00;94490.63;5137205;27;20499;-71
2021/12/30 11:14:47;;;;;;;;;;;;;;;4.64;100.00;94491.22;5137552;27;20371;-71
2021/12/30 11:17:20;;;;;;;6.45;3.63;;;;;;;4.50;100.00;94496.00;5137131;27;19919;-73
2021/12/30 11:19:55;;;;;;;5.60;3.85;;;;;;;4.54;100.00;94501.97;5137368;27;20024;-72
2021/12/30 11:22:23;;;;;;;5.25;3.63;;;;;;;5.16;100.00;94510.16;5135934;27;20065;-76
2021/12/30 11:24:51;;;;;;;11.57;3.92;;;;;;;5.16;100.00;94518.97;5137172;27;20018;-71
2021/12/30 11:27:18;;;;;;;7.93;4.20;;;;;;;5.13;100.00;94527.22;5136953;27;20038;-70
2021/12/30 11:29:46;;;;;;;6.05;4.05;;;;;;;5.18;100.00;94532.75;5136825;27;20098;-70
2021/12/30 11:32:15;;;;;;;6.57;4.05;;;;;;;5.15;100.00;94540.94;5136908;27;20038;-70